AUA762 LOWK-LOWW
Flight info
| Callsign | AUA762 |
|---|---|
| Flight time | N/A |
| Altitude | 16000 |
| Route | ABIRI1L/10L ABIRI DCT ABTAN ABTAN2W |
| Aircraft | B772/H-SDE2E3FGHIJ5LORVWXY/LB1D1 |
Departure
| Time | N/A |
|---|---|
| Airport | Klagenfurt Airport (LOWK) |
Arrival
| Time | 2026-04-24 19:20 |
|---|---|
| Airport | Vienna International Airport (LOWW) |
| Time | Latitude | Longitude | Altitude | Speed | Heading |
|---|---|---|---|---|---|
| 2026-04-24 18:54 | 47.23565 | 15.21386 | 16050 ft | 397 kts | 73° |
| 2026-04-24 18:55 | 47.24879 | 15.29298 | 16056 ft | 399 kts | 73° |
| 2026-04-24 18:55 | 47.25534 | 15.33262 | 16061 ft | 399 kts | 73° |
| 2026-04-24 18:55 | 47.26192 | 15.37241 | 16056 ft | 400 kts | 73° |
| 2026-04-24 18:56 | 47.26848 | 15.41224 | 16064 ft | 401 kts | 73° |
| 2026-04-24 18:56 | 47.27502 | 15.45211 | 16049 ft | 401 kts | 73° |
| 2026-04-24 18:56 | 47.28155 | 15.49200 | 16057 ft | 400 kts | 73° |
| 2026-04-24 18:56 | 47.28805 | 15.53184 | 16063 ft | 400 kts | 73° |
| 2026-04-24 18:57 | 47.29453 | 15.57166 | 16069 ft | 399 kts | 73° |
| 2026-04-24 18:57 | 47.30102 | 15.61139 | 16068 ft | 399 kts | 73° |
| 2026-04-24 18:57 | 47.30745 | 15.65089 | 16048 ft | 390 kts | 73° |
| 2026-04-24 18:57 | 47.31357 | 15.68894 | 16048 ft | 373 kts | 73° |
| 2026-04-24 18:58 | 47.31942 | 15.72535 | 16049 ft | 358 kts | 73° |
| 2026-04-24 18:58 | 47.32495 | 15.75979 | 16042 ft | 343 kts | 73° |
| 2026-04-24 18:58 | 47.33033 | 15.79323 | 16040 ft | 328 kts | 73° |
| 2026-04-24 18:58 | 47.33552 | 15.82557 | 16042 ft | 313 kts | 72° |
| 2026-04-24 18:59 | 47.34045 | 15.85615 | 16048 ft | 312 kts | 72° |
| 2026-04-24 18:59 | 47.34547 | 15.88733 | 16047 ft | 313 kts | 72° |
| 2026-04-24 18:59 | 47.35045 | 15.91839 | 16062 ft | 310 kts | 73° |
| 2026-04-24 18:59 | 47.35537 | 15.94925 | 16047 ft | 308 kts | 73° |
| 2026-04-24 19:00 | 47.36024 | 15.97990 | 16072 ft | 306 kts | 73° |
| 2026-04-24 19:00 | 47.36572 | 16.00998 | 16043 ft | 300 kts | 62° |
| 2026-04-24 19:00 | 47.37796 | 16.03476 | 16074 ft | 296 kts | 36° |
| 2026-04-24 19:00 | 47.39557 | 16.04998 | 16050 ft | 292 kts | 18° |
| 2026-04-24 19:01 | 47.41481 | 16.05979 | 16057 ft | 293 kts | 15° |
| 2026-04-24 19:01 | 47.43424 | 16.06922 | 16052 ft | 294 kts | 15° |
| 2026-04-24 19:01 | 47.45373 | 16.07861 | 16050 ft | 295 kts | 15° |
| 2026-04-24 19:01 | 47.47311 | 16.08801 | 15904 ft | 292 kts | 15° |
| 2026-04-24 19:02 | 47.48555 | 16.09503 | 15658 ft | 289 kts | 25° |
| 2026-04-24 19:02 | 47.50522 | 16.12257 | 14986 ft | 296 kts | 48° |
| 2026-04-24 19:02 | 47.51788 | 16.14576 | 14566 ft | 298 kts | 46° |
| 2026-04-24 19:02 | 47.53139 | 16.16987 | 14257 ft | 295 kts | 46° |
| 2026-04-24 19:03 | 47.54447 | 16.19311 | 13958 ft | 293 kts | 46° |
| 2026-04-24 19:03 | 47.55734 | 16.21594 | 13604 ft | 292 kts | 46° |
| 2026-04-24 19:03 | 47.57034 | 16.23897 | 13267 ft | 290 kts | 46° |
| 2026-04-24 19:03 | 47.58326 | 16.26186 | 12886 ft | 289 kts | 45° |
| 2026-04-24 19:04 | 47.59612 | 16.28465 | 12561 ft | 287 kts | 45° |
| 2026-04-24 19:04 | 47.60886 | 16.30725 | 12219 ft | 285 kts | 45° |
| 2026-04-24 19:04 | 47.62158 | 16.32977 | 11914 ft | 284 kts | 45° |
| 2026-04-24 19:04 | 47.63420 | 16.35216 | 11607 ft | 282 kts | 45° |
| 2026-04-24 19:05 | 47.64673 | 16.37439 | 11293 ft | 280 kts | 45° |
| 2026-04-24 19:05 | 47.65919 | 16.39652 | 10971 ft | 279 kts | 45° |
| 2026-04-24 19:05 | 47.67162 | 16.41862 | 10654 ft | 278 kts | 45° |
| 2026-04-24 19:05 | 47.68398 | 16.44062 | 10375 ft | 277 kts | 45° |
| 2026-04-24 19:06 | 47.69626 | 16.46248 | 10095 ft | 275 kts | 45° |
| 2026-04-24 19:06 | 47.70847 | 16.48423 | 9774 ft | 274 kts | 45° |
| 2026-04-24 19:06 | 47.72062 | 16.50588 | 9457 ft | 272 kts | 45° |
| 2026-04-24 19:06 | 47.73271 | 16.52745 | 9127 ft | 270 kts | 45° |
| 2026-04-24 19:07 | 47.74471 | 16.54888 | 8797 ft | 270 kts | 45° |
| 2026-04-24 19:07 | 47.75671 | 16.57032 | 8496 ft | 269 kts | 45° |
| 2026-04-24 19:07 | 47.76476 | 16.58472 | 8305 ft | 267 kts | 45° |
| 2026-04-24 19:07 | 47.78029 | 16.61256 | 8099 ft | 260 kts | 45° |
| 2026-04-24 19:08 | 47.79181 | 16.63319 | 8039 ft | 261 kts | 45° |
| 2026-04-24 19:08 | 47.80353 | 16.65415 | 8044 ft | 266 kts | 45° |
| 2026-04-24 19:08 | 47.81137 | 16.66821 | 8039 ft | 267 kts | 45° |
| 2026-04-24 19:08 | 47.82321 | 16.68947 | 8028 ft | 267 kts | 45° |
| 2026-04-24 19:09 | 47.83501 | 16.71069 | 8030 ft | 266 kts | 45° |
| 2026-04-24 19:09 | 47.84678 | 16.73187 | 8037 ft | 265 kts | 45° |
| 2026-04-24 19:09 | 47.85852 | 16.75298 | 8038 ft | 266 kts | 45° |
| 2026-04-24 19:09 | 47.87033 | 16.77423 | 8036 ft | 267 kts | 45° |
| 2026-04-24 19:10 | 47.88245 | 16.79472 | 8028 ft | 265 kts | 45° |
| 2026-04-24 19:10 | 47.89383 | 16.81662 | 7900 ft | 268 kts | 49° |
| 2026-04-24 19:10 | 47.90470 | 16.83881 | 7667 ft | 264 kts | 49° |
| 2026-04-24 19:10 | 47.91564 | 16.86123 | 7186 ft | 271 kts | 49° |
| 2026-04-24 19:11 | 47.92689 | 16.88419 | 6701 ft | 277 kts | 49° |
| 2026-04-24 19:11 | 47.93843 | 16.90760 | 6215 ft | 283 kts | 49° |
| 2026-04-24 19:11 | 47.95021 | 16.93137 | 5721 ft | 288 kts | 49° |
| 2026-04-24 19:11 | 47.96222 | 16.95553 | 5226 ft | 292 kts | 49° |
| 2026-04-24 19:12 | 47.97446 | 16.97975 | 4731 ft | 290 kts | 46° |
| 2026-04-24 19:12 | 47.98970 | 16.99828 | 4241 ft | 281 kts | 21° |
| 2026-04-24 19:12 | 48.00817 | 17.00381 | 4049 ft | 266 kts | 354° |
| 2026-04-24 19:12 | 48.02510 | 16.99581 | 3994 ft | 250 kts | 326° |
| 2026-04-24 19:13 | 48.03342 | 16.98442 | 3983 ft | 242 kts | 307° |
| 2026-04-24 19:13 | 48.03958 | 16.95376 | 3950 ft | 229 kts | 272° |
| 2026-04-24 19:13 | 48.03809 | 16.92997 | 3640 ft | 232 kts | 266° |
| 2026-04-24 19:13 | 48.03578 | 16.90587 | 3277 ft | 236 kts | 265° |
| 2026-04-24 19:14 | 48.03335 | 16.88158 | 3025 ft | 235 kts | 265° |
| 2026-04-24 19:14 | 48.03100 | 16.85810 | 3012 ft | 222 kts | 265° |
| 2026-04-24 19:14 | 48.02898 | 16.83605 | 2986 ft | 203 kts | 274° |
| 2026-04-24 19:14 | 48.03210 | 16.81646 | 3025 ft | 192 kts | 295° |
| 2026-04-24 19:15 | 48.03719 | 16.79761 | 3070 ft | 198 kts | 295° |
| 2026-04-24 19:15 | 48.04278 | 16.77897 | 3065 ft | 195 kts | 297° |
| 2026-04-24 19:15 | 48.04844 | 16.76133 | 3012 ft | 178 kts | 298° |
| 2026-04-24 19:15 | 48.05343 | 16.74599 | 2996 ft | 150 kts | 299° |
| 2026-04-24 19:16 | 48.06175 | 16.72055 | 2748 ft | 133 kts | 300° |
| 2026-04-24 19:16 | 48.06579 | 16.70820 | 2540 ft | 131 kts | 300° |
| 2026-04-24 19:16 | 48.06976 | 16.69601 | 2367 ft | 130 kts | 300° |
| 2026-04-24 19:17 | 48.07374 | 16.68387 | 2207 ft | 131 kts | 300° |
| 2026-04-24 19:17 | 48.07773 | 16.67162 | 2021 ft | 131 kts | 299° |
| 2026-04-24 19:17 | 48.08153 | 16.65995 | 1840 ft | 123 kts | 300° |
| 2026-04-24 19:17 | 48.08516 | 16.64867 | 1714 ft | 118 kts | 298° |
| 2026-04-24 19:18 | 48.08874 | 16.63756 | 1548 ft | 118 kts | 298° |
| 2026-04-24 19:18 | 48.09218 | 16.62632 | 1395 ft | 120 kts | 298° |
| 2026-04-24 19:18 | 48.09597 | 16.61500 | 1282 ft | 125 kts | 300° |
| 2026-04-24 19:18 | 48.09993 | 16.60318 | 1107 ft | 127 kts | 298° |
| 2026-04-24 19:19 | 48.10375 | 16.59142 | 900 ft | 125 kts | 297° |
| 2026-04-24 19:19 | 48.10747 | 16.58030 | 694 ft | 113 kts | 299° |
| 2026-04-24 19:19 | 48.11085 | 16.57015 | 640 ft | 105 kts | 295° |
| 2026-04-24 19:19 | 48.11367 | 16.56146 | 631 ft | 83 kts | 296° |
| 2026-04-24 19:20 | 48.11585 | 16.55484 | 631 ft | 50 kts | 303° |
| 2026-04-24 19:20 | 48.11798 | 16.55164 | 624 ft | 28 kts | 334° |
| 2026-04-24 19:20 | 48.11848 | 16.55147 | 626 ft | 0 kts | 11° |
| 2026-04-24 19:20 | 48.11851 | 16.55149 | 625 ft | 5 kts | 18° |
| 2026-04-24 19:21 | 48.11873 | 16.55267 | 627 ft | 15 kts | 121° |
| 2026-04-24 19:21 | 48.11816 | 16.55423 | 624 ft | 19 kts | 117° |
| 2026-04-24 19:21 | 48.11757 | 16.55609 | 628 ft | 25 kts | 117° |
| 2026-04-24 19:21 | 48.11665 | 16.55885 | 630 ft | 11 kts | 108° |
| 2026-04-24 19:22 | 48.11634 | 16.55984 | 627 ft | 26 kts | 117° |
| 2026-04-24 19:22 | 48.11608 | 16.56171 | 629 ft | 1 kts | 55° |
| 2026-04-24 19:22 | 48.11639 | 16.56221 | 626 ft | 19 kts | 38° |
| 2026-04-24 19:22 | 48.11750 | 16.56343 | 625 ft | 17 kts | 69° |
| 2026-04-24 19:23 | 48.11715 | 16.56500 | 625 ft | 20 kts | 117° |
| 2026-04-24 19:23 | 48.11653 | 16.56685 | 623 ft | 20 kts | 114° |
| 2026-04-24 19:23 | 48.11633 | 16.56756 | 620 ft | 14 kts | 117° |
| 2026-04-24 19:23 | 48.11614 | 16.56809 | 624 ft | 11 kts | 115° |
| 2026-04-24 19:24 | 48.11655 | 16.56895 | 626 ft | 5 kts | 23° |
| 2026-04-24 19:24 | 48.11678 | 16.56911 | 609 ft | 0 kts | 29° |